Alts de Covadonga, Puerto Rico
Current Conditions -  °F | °C
As of 9:56 PM on Thursday 20 Nov 2014 (Local Time) from TJSJ Reporting Station
Few Clouds Few Clouds  
Wind Chill: 27°   Ceiling: Unl
Heat Index: 29°   Visibility: 10mi
Dew Point: 22°   Wind: 6mph
Humidity: 76%   Direction: 100°E
Pressure: 30.03"   Gusts: NA
Location:  18.4519°N, 66.1817°W
Report Text: TJSJ 210156Z 10005KT 10SM FEW035 27/22 A3003 RMK AO2 SLP166 T02670222
Loading
Personal Weather Stations






























Interactive Weather Map New forecast layout! Learn more

10-Day Weather Forecast

Advertisements
Track Severe Weather on mobile